Archival Weather

Fukuoka

Fukuoka, Japan (RJFF)

Report from: Tuesday, August 16, 2022 6:45 AM JST
Current time: Sunday, November 27, 2022 6:50 PM JST

Current weather
Weather history
Weather forecast

Present weatherThunderstorm, VCSH
Temperature27.0°C (80.6°F)
Heat index30.6°C (87.0°F)
Dew point25.0°C (77.0°F)
Winds 14 kts (7.2 m/s, 16.1 mph) South-Southeast (160°)
Visibility6.2 mi. (10 km)
Clouds Few clouds 500 ft. (152 m)
Scattered clouds 3,500 ft. (1,067 m)
Few clouds with cumulonimbus 3,500 ft. (1,067 m)
Ceiling: Broken clouds 4,000 ft. (1,219 m)
Altimeter29.74 in.Hg (1007 mB)
Precip. events C 6:01 AM
Relative humidity89 %
Density altitude2,017 ft. (615 m)
Remarks Special weather observation
Thunderstorm southeast moving northeast
Flight conditions Visual Meteorological Conditions
Raw dataSPJP31 KWBC 152156 SPECI RJFF 152145Z 16014KT 9999 TS VCSH FEW005 SCT035 FEW035CB BKN040 27/25 Q1007 RMK 1ST005 4CU035 1CB035 5CU040 A2975 FBL TS 20KM SE MOV NE
An error has occurred. This application may no longer respond until reloaded. Reload 🗙